createdAt,value
2022-11-15T00:02:29.832Z,98344.97
2022-11-15T00:05:36.621Z,98349.63
2022-11-15T00:08:39.250Z,98343.22
2022-11-15T00:11:41.814Z,98349.28
2022-11-15T00:14:44.594Z,98353.16
2022-11-15T00:17:50.483Z,98346.91
2022-11-15T00:20:53.097Z,98340.00
2022-11-15T00:23:55.718Z,98341.44
2022-11-15T00:26:58.333Z,98342.88
2022-11-15T00:30:00.951Z,98340.78
2022-11-15T00:33:05.539Z,98334.22
2022-11-15T00:36:10.610Z,98335.81
2022-11-15T00:39:13.300Z,98330.69
2022-11-15T00:42:15.877Z,98324.91
2022-11-15T00:45:18.665Z,98325.72
2022-11-15T00:48:22.698Z,98317.84
2022-11-15T00:51:25.419Z,98321.88
2022-11-15T00:54:27.974Z,98320.41
2022-11-15T00:57:30.538Z,98318.16
2022-11-15T01:00:33.152Z,98319.44
2022-11-15T01:03:37.431Z,98309.19
2022-11-15T01:06:40.111Z,98308.69
2022-11-15T01:09:42.652Z,98306.78
2022-11-15T01:12:45.251Z,98309.03
2022-11-15T01:15:47.837Z,98309.00
2022-11-15T01:18:52.694Z,98305.94
2022-11-15T01:21:55.288Z,98294.19
2022-11-15T01:24:57.995Z,98301.38
2022-11-15T01:28:00.571Z,98302.13
2022-11-15T01:31:04.658Z,98295.41
2022-11-15T01:34:08.622Z,98299.94
2022-11-15T01:37:11.352Z,98297.56
2022-11-15T01:40:13.946Z,98294.97
2022-11-15T01:43:27.499Z,98305.03
2022-11-15T01:46:32.851Z,98294.44
2022-11-15T01:49:37.890Z,98299.88
2022-11-15T01:52:41.430Z,98291.84
2022-11-15T01:55:44.135Z,98289.66
2022-11-15T01:58:47.393Z,98290.78
2022-11-15T02:01:50.091Z,98284.84
2022-11-15T02:04:54.029Z,98281.25
2022-11-15T02:07:56.626Z,98280.72
2022-11-15T02:10:59.246Z,98280.47
2022-11-15T02:14:03.024Z,98267.19
2022-11-15T02:17:15.285Z,98271.84
2022-11-15T02:20:38.375Z,98265.78
2022-11-15T02:24:18.478Z,98268.78
2022-11-15T02:27:58.944Z,98263.53
2022-11-15T02:31:06.202Z,98251.56
2022-11-15T02:34:14.111Z,98256.69
2022-11-15T02:37:19.355Z,98249.00
2022-11-15T02:40:30.704Z,98251.38
2022-11-15T02:43:56.428Z,98246.22
2022-11-15T02:47:18.739Z,98242.56
2022-11-15T02:50:23.887Z,98235.81
2022-11-15T02:53:27.142Z,98229.56
2022-11-15T02:56:29.882Z,98229.25
2022-11-15T02:59:55.398Z,98228.78
2022-11-15T03:03:25.617Z,98222.19
2022-11-15T03:06:33.906Z,98231.88
2022-11-15T03:09:37.565Z,98223.78
2022-11-15T03:12:45.961Z,98219.16
2022-11-15T03:15:53.023Z,98218.97
2022-11-15T03:19:00.902Z,98214.19
2022-11-15T03:22:06.503Z,98211.31
2022-11-15T03:25:11.217Z,98210.34
2022-11-15T03:28:17.333Z,98212.41
2022-11-15T03:31:39.510Z,98211.66
2022-11-15T03:34:45.898Z,98211.63
2022-11-15T03:37:52.813Z,98216.03
2022-11-15T03:40:58.470Z,98202.31
2022-11-15T03:44:06.676Z,98206.03
2022-11-15T03:47:12.123Z,98183.47
2022-11-15T03:50:19.279Z,98179.31
2022-11-15T03:53:21.828Z,98182.97
2022-11-15T03:56:24.414Z,98195.28
2022-11-15T03:59:27.065Z,98186.19
2022-11-15T04:02:30.199Z,98177.25
2022-11-15T04:05:34.361Z,98168.06
2022-11-15T04:08:36.864Z,98178.03
2022-11-15T04:11:39.399Z,98184.13
2022-11-15T04:15:02.306Z,98180.25
2022-11-15T04:18:05.015Z,98182.94
2022-11-15T04:21:27.460Z,98177.69
2022-11-15T04:24:30.114Z,98179.00
2022-11-15T04:27:32.758Z,98174.50
2022-11-15T04:30:35.325Z,98184.97
2022-11-15T04:33:37.885Z,98178.25
2022-11-15T04:36:59.269Z,98188.81
2022-11-15T04:40:01.944Z,98175.81
2022-11-15T04:43:04.576Z,98170.34
2022-11-15T04:46:07.189Z,98158.28
2022-11-15T04:49:09.784Z,98158.47
2022-11-15T04:52:13.675Z,98170.25
2022-11-15T04:55:16.577Z,98159.75
2022-11-15T04:58:19.298Z,98159.59
2022-11-15T05:01:21.902Z,98159.75
2022-11-15T05:04:23.574Z,98154.41
2022-11-15T05:07:27.576Z,98144.41
2022-11-15T05:10:30.367Z,98142.34
2022-11-15T05:13:33.289Z,98139.19
2022-11-15T05:16:36.468Z,98132.16
2022-11-15T05:19:39.458Z,98135.28
2022-11-15T05:22:43.544Z,98136.19
2022-11-15T05:25:46.112Z,98141.38
2022-11-15T05:28:48.848Z,98137.19
2022-11-15T05:31:51.500Z,98137.69
2022-11-15T05:34:54.202Z,98137.75
2022-11-15T05:37:58.446Z,98135.09
2022-11-15T05:41:01.695Z,98137.53
2022-11-15T05:44:07.503Z,98126.19
2022-11-15T05:47:11.328Z,98128.59
2022-11-15T05:50:15.079Z,98117.91
2022-11-15T05:53:19.808Z,98117.44
2022-11-15T05:56:22.966Z,98124.16
2022-11-15T05:59:25.841Z,98129.31
2022-11-15T06:02:28.969Z,98117.25
2022-11-15T06:05:31.854Z,98122.09
2022-11-15T06:08:35.807Z,98125.97
2022-11-15T06:11:38.395Z,98125.03
2022-11-15T06:14:40.942Z,98123.44
2022-11-15T06:17:43.542Z,98121.56
2022-11-15T06:20:46.172Z,98132.44
2022-11-15T06:23:50.176Z,98134.19
2022-11-15T06:26:54.626Z,98130.81
2022-11-15T06:29:57.221Z,98134.78
2022-11-15T06:33:03.751Z,98125.03
2022-11-15T06:36:09.232Z,98128.25
2022-11-15T06:39:16.690Z,98126.66
2022-11-15T06:42:19.252Z,98130.84
2022-11-15T06:45:21.868Z,98135.94
2022-11-15T06:48:24.759Z,98144.44
2022-11-15T06:51:27.316Z,98139.00
2022-11-15T06:54:31.496Z,98133.88
2022-11-15T06:57:35.400Z,98136.59
2022-11-15T07:00:38.320Z,98137.91
2022-11-15T07:03:42.200Z,98145.44
2022-11-15T07:06:45.274Z,98138.41
2022-11-15T07:09:49.465Z,98143.03
2022-11-15T07:12:52.238Z,98147.88
2022-11-15T07:15:55.088Z,98153.13
2022-11-15T07:18:57.938Z,98151.03
2022-11-15T07:22:00.605Z,98148.97
2022-11-15T07:25:05.397Z,98146.50
2022-11-15T07:28:08.210Z,98142.06
2022-11-15T07:31:11.307Z,98146.00
2022-11-15T07:34:13.979Z,98146.09
2022-11-15T07:37:17.899Z,98149.34
2022-11-15T07:40:21.850Z,98141.91
2022-11-15T07:43:24.432Z,98139.91
2022-11-15T07:46:27.128Z,98136.38
2022-11-15T07:49:29.803Z,98133.53
2022-11-15T07:52:32.414Z,98135.56
2022-11-15T07:55:36.401Z,98128.19
2022-11-15T07:58:39.107Z,98119.34
2022-11-15T08:01:42.384Z,98128.22
2022-11-15T08:04:45.029Z,98121.81
2022-11-15T08:07:52.651Z,98124.72
2022-11-15T08:10:57.034Z,98118.56
2022-11-15T08:14:00.288Z,98112.41
2022-11-15T08:17:03.108Z,98118.72
2022-11-15T08:20:06.309Z,98110.66
2022-11-15T08:23:09.986Z,98108.16
2022-11-15T08:26:13.964Z,98110.66
2022-11-15T08:29:16.887Z,98109.53
2022-11-15T08:32:20.284Z,98107.94
2022-11-15T08:35:28.657Z,98098.81
2022-11-15T08:38:32.641Z,98090.16
2022-11-15T08:41:39.245Z,98099.03
2022-11-15T08:44:42.070Z,98089.59
2022-11-15T08:47:47.415Z,98084.44
2022-11-15T08:50:56.280Z,98084.66
2022-11-15T08:53:58.861Z,98079.19
2022-11-15T08:57:02.828Z,98081.31
2022-11-15T09:00:06.622Z,98071.09
2022-11-15T09:03:10.260Z,98063.81
2022-11-15T09:06:12.950Z,98067.16
2022-11-15T09:09:15.558Z,98067.03
2022-11-15T09:12:19.522Z,98064.97
2022-11-15T09:15:22.214Z,98069.63
2022-11-15T09:18:25.001Z,98071.31
2022-11-15T09:21:27.767Z,98067.38
2022-11-15T09:24:30.464Z,98067.09
2022-11-15T09:27:34.425Z,98058.84
2022-11-15T09:30:37.206Z,98067.63
2022-11-15T09:33:39.899Z,98066.88
2022-11-15T09:36:42.573Z,98063.00
2022-11-15T09:39:45.465Z,98064.91
2022-11-15T09:42:59.051Z,98057.91
2022-11-15T09:46:11.145Z,98056.34
2022-11-15T09:49:16.189Z,98054.22
2022-11-15T09:52:19.829Z,98050.81
2022-11-15T09:55:32.700Z,98042.53
2022-11-15T09:58:40.334Z,98040.81
2022-11-15T10:01:48.429Z,98038.09
2022-11-15T10:04:51.672Z,98038.94
2022-11-15T10:08:00.795Z,98032.13
2022-11-15T10:11:35.617Z,98032.56
2022-11-15T10:14:33.209Z,98030.19
2022-11-15T10:17:51.590Z,98026.41
2022-11-15T10:20:58.343Z,98025.19
2022-11-15T10:24:01.059Z,98019.41
2022-11-15T10:27:03.917Z,98014.03
2022-11-15T10:30:13.309Z,98007.00
2022-11-15T10:33:25.374Z,98007.16
2022-11-15T10:36:28.151Z,97994.56
2022-11-15T10:39:31.731Z,97990.47
2022-11-15T10:42:34.543Z,97988.53
2022-11-15T10:45:39.573Z,97987.47
2022-11-15T10:48:42.595Z,97982.31
2022-11-15T10:51:47.859Z,97980.84
2022-11-15T10:54:59.948Z,97980.91
2022-11-15T10:58:06.785Z,97976.00
2022-11-15T11:01:18.924Z,97975.03
2022-11-15T11:04:21.935Z,97965.00
2022-11-15T11:07:26.564Z,97969.63
2022-11-15T11:10:50.273Z,97971.56
2022-11-15T11:13:52.594Z,97958.84
2022-11-15T11:17:03.492Z,97961.91
2022-11-15T11:20:12.068Z,97968.44
2022-11-15T11:23:27.379Z,97958.88
2022-11-15T11:26:41.079Z,97952.38
2022-11-15T11:29:47.222Z,97945.31
2022-11-15T11:33:00.578Z,97949.84
2022-11-15T11:36:16.077Z,97955.16
2022-11-15T11:39:28.807Z,97941.72
2022-11-15T11:42:38.356Z,97936.75
2022-11-15T11:45:55.424Z,97937.97
2022-11-15T11:49:03.839Z,97921.44
2022-11-15T11:52:11.757Z,97915.97
2022-11-15T11:55:16.833Z,97918.34
2022-11-15T11:58:22.165Z,97912.00
2022-11-15T12:01:26.951Z,97910.06
2022-11-15T12:04:32.889Z,97907.59
2022-11-15T12:07:37.129Z,97901.34
2022-11-15T12:10:39.964Z,97903.84
2022-11-15T12:13:42.896Z,97901.91
2022-11-15T12:16:45.537Z,97892.41
2022-11-15T12:19:49.641Z,97884.06
2022-11-15T12:22:56.441Z,97880.81
2022-11-15T12:26:03.376Z,97879.16
2022-11-15T12:29:11.625Z,97881.47
2022-11-15T12:32:21.191Z,97885.31
2022-11-15T12:35:30.136Z,97872.59
2022-11-15T12:38:56.134Z,97874.50
2022-11-15T12:42:46.611Z,97868.50
2022-11-15T12:45:49.422Z,97866.84
2022-11-15T12:48:57.355Z,97867.94
2022-11-15T12:52:11.010Z,97863.66
2022-11-15T12:55:33.903Z,97861.34
2022-11-15T12:58:44.076Z,97854.34
2022-11-15T13:02:02.445Z,97857.50
2022-11-15T13:05:56.830Z,97846.69
2022-11-15T13:09:00.923Z,97847.44
2022-11-15T13:12:04.859Z,97845.00
2022-11-15T13:15:43.058Z,97838.59
2022-11-15T13:18:55.384Z,97835.69
2022-11-15T13:22:16.018Z,97826.28
2022-11-15T13:25:21.567Z,97821.16
2022-11-15T13:28:30.543Z,97827.41
2022-11-15T13:31:38.246Z,97825.00
2022-11-15T13:34:56.504Z,97815.53
2022-11-15T13:38:06.462Z,97815.34
2022-11-15T13:41:22.584Z,97802.00
2022-11-15T13:44:27.126Z,97801.47
2022-11-15T13:47:31.067Z,97793.97
2022-11-15T13:50:36.672Z,97794.34
2022-11-15T13:53:42.068Z,97786.94
2022-11-15T13:56:48.132Z,97781.59
2022-11-15T13:59:52.843Z,97779.13
2022-11-15T14:02:56.776Z,97776.97
2022-11-15T14:06:08.580Z,97768.91
2022-11-15T14:09:36.356Z,97770.31
2022-11-15T14:12:40.867Z,97767.69
2022-11-15T14:15:43.850Z,97755.75
2022-11-15T14:18:49.031Z,97755.16
2022-11-15T14:22:15.001Z,97753.00
2022-11-15T14:25:21.193Z,97750.47
2022-11-15T14:28:34.498Z,97747.31
2022-11-15T14:31:42.573Z,97747.72
2022-11-15T14:34:46.485Z,97730.06
2022-11-15T14:37:49.735Z,97720.78
2022-11-15T14:40:52.606Z,97722.50
2022-11-15T14:43:56.558Z,97712.19
2022-11-15T14:46:59.179Z,97714.88
2022-11-15T14:50:01.861Z,97708.75
2022-11-15T14:53:05.279Z,97700.00
2022-11-15T14:56:07.910Z,97703.84
2022-11-15T14:59:11.894Z,97697.63
2022-11-15T15:02:19.177Z,97689.81
2022-11-15T15:05:24.385Z,97685.41
2022-11-15T15:08:27.055Z,97682.50
2022-11-15T15:11:31.746Z,97686.72
2022-11-15T15:14:35.767Z,97686.25
2022-11-15T15:17:38.592Z,97680.66
2022-11-15T15:20:42.370Z,97670.25
2022-11-15T15:23:44.999Z,97674.03
2022-11-15T15:26:47.574Z,97669.56
2022-11-15T15:29:51.511Z,97644.72
2022-11-15T15:32:54.890Z,97654.00
2022-11-15T15:35:57.613Z,97638.97
2022-11-15T15:39:00.360Z,97642.59
2022-11-15T15:42:03.033Z,97641.13
2022-11-15T15:45:08.298Z,97641.88
2022-11-15T15:48:13.586Z,97637.19
2022-11-15T15:51:20.420Z,97622.34
2022-11-15T15:54:23.492Z,97626.50
2022-11-15T15:57:26.160Z,97620.16
2022-11-15T16:00:30.392Z,97613.19
2022-11-15T16:03:33.190Z,97618.28
2022-11-15T16:06:40.351Z,97618.38
2022-11-15T16:10:00.760Z,97617.53
2022-11-15T16:13:03.551Z,97603.06
2022-11-15T16:16:11.483Z,97599.56
2022-11-15T16:19:14.310Z,97597.97
2022-11-15T16:22:17.020Z,97584.25
2022-11-15T16:25:19.712Z,97585.50
2022-11-15T16:28:24.814Z,97572.16
2022-11-15T16:31:28.771Z,97579.78
2022-11-15T16:34:34.888Z,97574.97
2022-11-15T16:37:40.856Z,97569.03
2022-11-15T16:40:43.448Z,97566.63
2022-11-15T16:43:47.612Z,97564.25
2022-11-15T16:46:52.753Z,97560.25
2022-11-15T16:49:55.426Z,97557.94
2022-11-15T16:52:59.400Z,97560.72
2022-11-15T16:56:02.107Z,97551.63
2022-11-15T16:59:04.775Z,97549.31
2022-11-15T17:02:12.015Z,97550.97
2022-11-15T17:05:19.881Z,97547.03
2022-11-15T17:08:24.418Z,97545.47
2022-11-15T17:11:27.024Z,97536.47
2022-11-15T17:14:29.698Z,97539.22
2022-11-15T17:17:34.161Z,97529.78
2022-11-15T17:20:36.847Z,97520.38
2022-11-15T17:23:39.736Z,97524.28
2022-11-15T17:26:42.878Z,97521.09
2022-11-15T17:29:45.531Z,97523.84
2022-11-15T17:32:49.855Z,97527.75
2022-11-15T17:35:57.166Z,97521.00
2022-11-15T17:39:00.313Z,97511.56
2022-11-15T17:42:03.199Z,97522.06
2022-11-15T17:45:09.920Z,97516.13
2022-11-15T17:48:14.584Z,97519.75
2022-11-15T17:51:18.760Z,97510.72
2022-11-15T17:54:21.371Z,97507.97
2022-11-15T17:57:24.239Z,97509.94
2022-11-15T18:00:26.865Z,97503.28
2022-11-15T18:03:31.337Z,97497.72
2022-11-15T18:06:35.498Z,97494.16
2022-11-15T18:09:38.796Z,97498.81
2022-11-15T18:12:41.558Z,97499.63
2022-11-15T18:15:44.145Z,97497.66
2022-11-15T18:18:49.181Z,97496.13
2022-11-15T18:21:57.937Z,97491.75
2022-11-15T18:25:00.558Z,97495.31
2022-11-15T18:28:03.137Z,97501.13
2022-11-15T18:31:14.061Z,97494.06
2022-11-15T18:34:18.573Z,97499.63
2022-11-15T18:37:21.171Z,97496.09
2022-11-15T18:40:23.787Z,97504.25
2022-11-15T18:43:26.621Z,97498.72
2022-11-15T18:46:30.757Z,97502.28
2022-11-15T18:49:35.472Z,97501.13
2022-11-15T18:52:38.117Z,97498.75
2022-11-15T18:55:40.867Z,97497.88
2022-11-15T18:58:46.482Z,97500.88
2022-11-15T19:01:50.108Z,97499.97
2022-11-15T19:04:54.143Z,97498.28
2022-11-15T19:07:56.840Z,97497.41
2022-11-15T19:11:04.001Z,97485.63
2022-11-15T19:14:08.224Z,97485.47
2022-11-15T19:17:11.018Z,97481.97
2022-11-15T19:20:15.204Z,97476.00
2022-11-15T19:23:17.823Z,97472.47
2022-11-15T19:26:21.578Z,97472.44
2022-11-15T19:29:24.522Z,97473.94
2022-11-15T19:32:28.794Z,97466.47
2022-11-15T19:35:32.830Z,97455.81
2022-11-15T19:38:36.779Z,97453.03
2022-11-15T19:41:42.209Z,97454.81
2022-11-15T19:44:44.884Z,97450.78
2022-11-15T19:47:47.621Z,97443.69
2022-11-15T19:50:51.715Z,97438.09
2022-11-15T19:53:55.838Z,97428.59
2022-11-15T19:56:58.485Z,97438.69
2022-11-15T20:00:06.863Z,97440.22
2022-11-15T20:03:10.043Z,97433.97
2022-11-15T20:06:16.832Z,97431.72
2022-11-15T20:09:20.490Z,97429.41
2022-11-15T20:12:23.627Z,97423.06
2022-11-15T20:15:26.450Z,97415.50
2022-11-15T20:18:30.679Z,97417.81
2022-11-15T20:21:35.368Z,97414.97
2022-11-15T20:24:38.114Z,97404.28
2022-11-15T20:27:40.886Z,97406.63
2022-11-15T20:30:44.300Z,97404.59
2022-11-15T20:33:47.393Z,97409.41
2022-11-15T20:36:51.446Z,97405.88
2022-11-15T20:39:54.179Z,97406.03
2022-11-15T20:42:56.998Z,97406.41
2022-11-15T20:45:59.756Z,97401.63
2022-11-15T20:49:02.463Z,97406.78
2022-11-15T20:52:06.704Z,97400.19
2022-11-15T20:55:10.592Z,97393.09
2022-11-15T20:58:13.313Z,97395.31
2022-11-15T21:01:17.748Z,97387.78
2022-11-15T21:04:20.779Z,97386.25
2022-11-15T21:07:25.020Z,97380.78
2022-11-15T21:10:45.200Z,97379.25
2022-11-15T21:13:47.890Z,97367.50
2022-11-15T21:16:50.740Z,97365.25
2022-11-15T21:19:53.869Z,97362.53
2022-11-15T21:22:58.064Z,97358.94
2022-11-15T21:26:00.647Z,97352.31
2022-11-15T21:29:03.541Z,97341.66
2022-11-15T21:32:08.173Z,97338.28
2022-11-15T21:38:38.791Z,97327.63
2022-11-15T21:41:41.396Z,97333.63
2022-11-15T21:44:44.027Z,97325.13
2022-11-15T21:47:46.971Z,97331.38
2022-11-15T21:50:56.261Z,97331.75
2022-11-15T21:54:00.660Z,97336.84
2022-11-15T21:57:03.392Z,97328.34
2022-11-15T22:00:38.839Z,97321.63
2022-11-15T22:03:41.912Z,97324.25
2022-11-15T22:06:44.627Z,97320.28
2022-11-15T22:09:48.565Z,97315.00
2022-11-15T22:12:51.180Z,97315.06
2022-11-15T22:15:54.138Z,97310.28
2022-11-15T22:18:57.090Z,97305.94
2022-11-15T22:22:00.845Z,97307.56
2022-11-15T22:25:05.995Z,97302.09
2022-11-15T22:28:08.707Z,97304.13
2022-11-15T22:31:11.942Z,97319.81
2022-11-15T22:34:14.657Z,97322.22
2022-11-15T22:37:21.303Z,97318.69
2022-11-15T22:40:25.607Z,97312.84
2022-11-15T22:43:28.532Z,97307.66
2022-11-15T22:46:31.332Z,97306.38
2022-11-15T22:49:34.016Z,97311.06
2022-11-15T22:52:37.100Z,97304.72
2022-11-15T22:55:41.343Z,97306.81
2022-11-15T22:58:44.106Z,97301.94
2022-11-15T23:01:46.835Z,97300.66
2022-11-15T23:04:49.535Z,97310.47
2022-11-15T23:07:52.234Z,97311.16
2022-11-15T23:11:13.659Z,97308.84
2022-11-15T23:14:16.541Z,97301.38
2022-11-15T23:17:19.219Z,97309.88
2022-11-15T23:20:41.958Z,97317.16
2022-11-15T23:23:43.510Z,97305.44
2022-11-15T23:26:49.339Z,97296.50
2022-11-15T23:30:08.978Z,97291.38
2022-11-15T23:33:32.537Z,97286.94
2022-11-15T23:36:35.244Z,97293.47
2022-11-15T23:39:38.174Z,97287.34
2022-11-15T23:42:42.231Z,97286.47
2022-11-15T23:45:44.925Z,97283.69
2022-11-15T23:48:47.803Z,97292.59
2022-11-15T23:51:50.520Z,97290.75
2022-11-15T23:54:53.271Z,97296.22
2022-11-15T23:57:57.500Z,97283.25
